createdAt,value
2022-09-10T00:01:37.221Z,84.39
2022-09-10T00:04:11.792Z,84.14
2022-09-10T00:06:41.124Z,83.74
2022-09-10T00:09:10.481Z,83.90
2022-09-10T00:11:41.208Z,83.74
2022-09-10T00:14:17.381Z,83.36
2022-09-10T00:16:45.244Z,83.12
2022-09-10T00:19:15.059Z,82.95
2022-09-10T00:21:47.023Z,82.56
2022-09-10T00:24:14.989Z,82.04
2022-09-10T00:26:43.061Z,82.04
2022-09-10T00:29:13.186Z,81.67
2022-09-10T00:31:41.377Z,81.70
2022-09-10T00:34:12.088Z,81.62
2022-09-10T00:36:43.255Z,81.53
2022-09-10T00:39:15.296Z,81.48
2022-09-10T00:41:46.505Z,81.53
2022-09-10T00:44:43.088Z,81.98
2022-09-10T00:47:22.932Z,82.60
2022-09-10T00:50:25.848Z,82.76
2022-09-10T00:52:57.271Z,82.95
2022-09-10T00:55:25.453Z,83.08
2022-09-10T00:57:58.342Z,83.21
2022-09-10T01:00:26.952Z,83.48
2022-09-10T01:02:55.708Z,83.57
2022-09-10T01:05:24.798Z,83.47
2022-09-10T01:07:53.590Z,83.12
2022-09-10T01:10:29.136Z,83.05
2022-09-10T01:13:35.401Z,83.49
2022-09-10T01:16:27.705Z,83.63
2022-09-10T01:19:07.593Z,83.29
2022-09-10T01:21:47.083Z,83.22
2022-09-10T01:24:39.981Z,83.33
2022-09-10T01:27:21.675Z,83.40
2022-09-10T01:30:03.505Z,83.07
2022-09-10T01:32:49.768Z,82.59
2022-09-10T01:35:43.233Z,82.26
2022-09-10T01:38:35.704Z,81.92
2022-09-10T01:41:05.593Z,82.02
2022-09-10T01:43:38.065Z,82.08
2022-09-10T01:46:15.152Z,81.95
2022-09-10T01:48:54.384Z,81.49
2022-09-10T01:51:30.029Z,81.31
2022-09-10T01:54:04.143Z,81.33
2022-09-10T01:56:46.966Z,81.08
2022-09-10T01:59:51.077Z,80.91
2022-09-10T02:02:25.338Z,81.16
2022-09-10T02:04:55.343Z,81.44
2022-09-10T02:07:27.040Z,81.77
2022-09-10T02:09:55.961Z,81.97
2022-09-10T02:12:25.078Z,82.09
2022-09-10T02:15:14.388Z,82.22
2022-09-10T02:17:53.783Z,82.48
2022-09-10T02:20:22.315Z,82.67
2022-09-10T02:22:58.820Z,82.80
2022-09-10T02:25:33.859Z,83.12
2022-09-10T02:28:04.864Z,83.58
2022-09-10T02:30:33.587Z,83.73
2022-09-10T02:33:01.549Z,83.68
2022-09-10T02:35:31.276Z,84.01
2022-09-10T02:37:59.535Z,83.90
2022-09-10T02:40:28.739Z,83.77
2022-09-10T02:42:56.704Z,83.74
2022-09-10T02:45:25.735Z,83.87
2022-09-10T02:47:55.104Z,83.86
2022-09-10T02:50:24.584Z,83.86
2022-09-10T02:52:54.010Z,83.79
2022-09-10T02:55:21.986Z,83.28
2022-09-10T02:57:50.048Z,82.80
2022-09-10T03:00:20.477Z,82.25
2022-09-10T03:02:48.445Z,81.65
2022-09-10T03:05:17.452Z,81.25
2022-09-10T03:07:46.333Z,81.16
2022-09-10T03:10:14.708Z,81.17
2022-09-10T03:12:42.884Z,80.97
2022-09-10T03:15:13.002Z,80.93
2022-09-10T03:17:40.915Z,80.43
2022-09-10T03:20:09.402Z,80.71
2022-09-10T03:22:38.263Z,80.73
2022-09-10T03:25:08.185Z,80.67
2022-09-10T03:27:36.646Z,80.95
2022-09-10T03:30:07.477Z,81.02
2022-09-10T03:32:35.857Z,81.10
2022-09-10T03:35:06.390Z,81.29
2022-09-10T03:37:34.461Z,81.30
2022-09-10T03:40:03.707Z,81.36
2022-09-10T03:42:31.731Z,81.73
2022-09-10T03:45:01.176Z,82.18
2022-09-10T03:47:29.306Z,82.45
2022-09-10T03:49:57.497Z,82.28
2022-09-10T03:52:27.294Z,82.39
2022-09-10T03:54:55.469Z,82.41
2022-09-10T03:57:25.908Z,83.07
2022-09-10T03:59:54.066Z,83.14
2022-09-10T04:02:22.206Z,83.40
2022-09-10T04:04:50.832Z,83.73
2022-09-10T04:07:18.897Z,83.56
2022-09-10T04:09:48.167Z,83.66
2022-09-10T04:12:16.987Z,83.73
2022-09-10T04:14:46.699Z,83.64
2022-09-10T04:17:17.942Z,83.45
2022-09-10T04:19:46.225Z,83.30
2022-09-10T04:22:14.289Z,82.96
2022-09-10T04:24:42.623Z,82.88
2022-09-10T04:27:11.578Z,82.74
2022-09-10T04:29:39.631Z,82.38
2022-09-10T04:32:07.906Z,82.05
2022-09-10T04:34:36.804Z,81.83
2022-09-10T04:37:05.272Z,81.99
2022-09-10T04:39:35.169Z,81.52
2022-09-10T04:42:03.778Z,81.34
2022-09-10T04:44:33.180Z,80.83
2022-09-10T04:47:02.383Z,80.90
2022-09-10T04:49:30.557Z,81.03
2022-09-10T04:51:59.032Z,81.20
2022-09-10T04:54:27.314Z,81.36
2022-09-10T04:56:55.997Z,81.60
2022-09-10T04:59:24.477Z,81.57
2022-09-10T05:01:52.672Z,81.66
2022-09-10T05:04:20.729Z,81.77
2022-09-10T05:06:50.440Z,81.58
2022-09-10T05:09:18.612Z,82.22
2022-09-10T05:11:47.416Z,82.54
2022-09-10T05:14:16.048Z,82.45
2022-09-10T05:16:46.535Z,82.71
2022-09-10T05:19:18.066Z,82.55
2022-09-10T05:22:03.747Z,82.73
2022-09-10T05:24:34.584Z,82.88
2022-09-10T05:27:04.934Z,82.85
2022-09-10T05:29:33.082Z,82.70
2022-09-10T05:32:01.602Z,82.82
2022-09-10T05:34:29.638Z,82.85
2022-09-10T05:36:58.732Z,82.88
2022-09-10T05:39:26.905Z,82.85
2022-09-10T05:41:55.698Z,82.71
2022-09-10T05:44:24.659Z,82.34
2022-09-10T05:46:53.175Z,82.13
2022-09-10T05:49:22.166Z,81.66
2022-09-10T05:51:50.548Z,81.47
2022-09-10T05:54:18.921Z,81.42
2022-09-10T05:56:47.104Z,81.36
2022-09-10T05:59:15.105Z,81.51
2022-09-10T06:01:50.699Z,81.33
2022-09-10T06:04:20.116Z,80.82
2022-09-10T06:06:48.079Z,80.58
2022-09-10T06:09:17.386Z,80.59
2022-09-10T06:11:59.405Z,80.39
2022-09-10T06:14:27.558Z,80.37
2022-09-10T06:16:55.737Z,80.47
2022-09-10T06:19:25.153Z,80.56
2022-09-10T06:21:53.160Z,80.60
2022-09-10T06:24:22.712Z,80.92
2022-09-10T06:26:52.638Z,81.12
2022-09-10T06:29:20.686Z,81.32
2022-09-10T06:31:49.705Z,81.36
2022-09-10T06:34:19.088Z,81.65
2022-09-10T06:36:49.626Z,81.94
2022-09-10T06:39:18.414Z,82.02
2022-09-10T06:41:53.449Z,81.91
2022-09-10T06:44:39.992Z,82.22
2022-09-10T06:50:26.707Z,83.08
2022-09-10T06:52:57.934Z,83.21
2022-09-10T06:55:26.201Z,83.32
2022-09-10T06:57:54.485Z,83.13
2022-09-10T07:00:24.053Z,83.01
2022-09-10T07:02:54.497Z,83.05
2022-09-10T07:05:23.922Z,82.77
2022-09-10T07:07:52.549Z,82.39
2022-09-10T07:10:20.986Z,82.37
2022-09-10T07:12:50.385Z,82.12
2022-09-10T07:15:20.102Z,82.06
2022-09-10T07:17:48.377Z,82.09
2022-09-10T07:20:17.162Z,82.16
2022-09-10T07:22:47.285Z,82.16
2022-09-10T07:25:16.602Z,82.20
2022-09-10T07:28:14.553Z,82.50
2022-09-10T07:30:45.532Z,81.91
2022-09-10T07:33:14.691Z,81.61
2022-09-10T07:35:45.020Z,81.63
2022-09-10T07:38:14.320Z,81.19
2022-09-10T07:40:43.924Z,80.84
2022-09-10T07:43:12.121Z,80.71
2022-09-10T07:45:41.911Z,80.00
2022-09-10T07:48:12.096Z,79.44
2022-09-10T07:50:40.331Z,79.39
2022-09-10T07:53:08.383Z,79.47
2022-09-10T07:55:37.375Z,79.71
2022-09-10T07:58:06.699Z,79.54
2022-09-10T08:00:36.923Z,79.27
2022-09-10T08:03:05.891Z,79.11
2022-09-10T08:05:38.367Z,79.21
2022-09-10T08:08:06.843Z,79.92
2022-09-10T08:10:36.451Z,80.46
2022-09-10T08:13:04.526Z,80.76
2022-09-10T08:15:32.787Z,81.25
2022-09-10T08:18:01.179Z,81.59
2022-09-10T08:20:29.681Z,81.51
2022-09-10T08:22:59.886Z,81.23
2022-09-10T08:25:28.061Z,81.36
2022-09-10T08:27:57.868Z,81.07
2022-09-10T08:30:26.662Z,81.05
2022-09-10T08:32:56.267Z,80.61
2022-09-10T08:35:24.336Z,80.62
2022-09-10T08:37:52.716Z,80.42
2022-09-10T08:40:21.607Z,79.72
2022-09-10T08:42:51.203Z,79.89
2022-09-10T08:45:31.681Z,79.87
2022-09-10T08:48:19.410Z,80.05
2022-09-10T08:51:03.155Z,79.99
2022-09-10T08:53:37.266Z,79.50
2022-09-10T08:56:11.560Z,79.59
2022-09-10T08:58:45.351Z,78.95
2022-09-10T09:01:25.809Z,78.40
2022-09-10T09:03:57.450Z,77.67
2022-09-10T09:06:39.605Z,78.00
2022-09-10T09:09:15.465Z,77.47
2022-09-10T09:11:51.768Z,77.49
2022-09-10T09:14:33.529Z,76.41
2022-09-10T09:17:39.567Z,74.44
2022-09-10T09:20:10.829Z,71.64
2022-09-10T09:23:10.341Z,71.31
2022-09-10T09:25:48.246Z,70.72
2022-09-10T09:28:39.494Z,69.92
2022-09-10T09:31:26.480Z,67.24
2022-09-10T09:34:02.013Z,67.01
2022-09-10T09:36:37.902Z,66.44
2022-09-10T09:39:18.040Z,66.44
2022-09-10T09:42:02.684Z,64.68
2022-09-10T09:45:00.622Z,64.88
2022-09-10T09:47:29.137Z,64.62
2022-09-10T09:49:58.442Z,61.39
2022-09-10T09:52:31.313Z,59.44
2022-09-10T09:55:14.956Z,58.33
2022-09-10T09:57:43.849Z,57.12
2022-09-10T10:00:37.943Z,56.57
2022-09-10T10:03:25.976Z,56.05
2022-09-10T10:06:08.739Z,54.16
2022-09-10T10:08:41.522Z,53.50
2022-09-10T10:11:13.930Z,53.27
2022-09-10T10:13:44.439Z,53.24
2022-09-10T10:16:19.035Z,53.91
2022-09-10T10:18:47.127Z,52.44
2022-09-10T10:21:22.311Z,50.29
2022-09-10T10:23:50.392Z,49.01
2022-09-10T10:26:21.186Z,49.21
2022-09-10T10:28:58.721Z,48.62
2022-09-10T10:31:56.382Z,49.06
2022-09-10T10:34:47.406Z,47.90
2022-09-10T10:37:27.133Z,47.49
2022-09-10T10:40:18.245Z,46.51
2022-09-10T10:43:00.756Z,47.43
2022-09-10T10:45:45.207Z,47.52
2022-09-10T10:48:36.086Z,47.38
2022-09-10T10:51:15.199Z,47.90
2022-09-10T10:53:59.338Z,48.69
2022-09-10T10:56:32.909Z,49.68
2022-09-10T10:59:26.871Z,50.69
2022-09-10T11:02:14.311Z,51.59
2022-09-10T11:04:50.363Z,52.61
2022-09-10T11:07:29.807Z,52.96
2022-09-10T11:10:06.526Z,53.25
2022-09-10T11:12:46.528Z,54.25
2022-09-10T11:15:48.725Z,55.86
2022-09-10T11:18:27.390Z,57.70
2022-09-10T11:21:10.338Z,58.90
2022-09-10T11:23:47.107Z,60.65
2022-09-10T11:26:34.226Z,61.35
2022-09-10T11:29:21.043Z,61.84
2022-09-10T11:32:15.327Z,61.17
2022-09-10T11:34:54.672Z,61.49
2022-09-10T11:37:44.833Z,61.64
2022-09-10T11:40:22.128Z,62.31
2022-09-10T11:42:56.562Z,62.09
2022-09-10T11:45:39.072Z,62.91
2022-09-10T11:48:30.385Z,61.26
2022-09-10T11:51:14.738Z,61.94
2022-09-10T11:53:42.697Z,61.19
2022-09-10T11:56:33.259Z,59.07
2022-09-10T11:59:28.929Z,57.14
2022-09-10T12:02:33.963Z,55.91
2022-09-10T12:05:23.958Z,54.36
2022-09-10T12:08:19.334Z,52.47
2022-09-10T12:11:09.330Z,51.30
2022-09-10T12:13:41.518Z,51.48
2022-09-10T12:16:35.245Z,53.07
2022-09-10T12:19:22.363Z,52.48
2022-09-10T12:21:54.731Z,52.80
2022-09-10T12:24:36.738Z,53.49
2022-09-10T12:27:06.911Z,52.95
2022-09-10T12:29:37.079Z,53.55
2022-09-10T12:32:07.911Z,53.61
2022-09-10T12:34:37.622Z,53.32
2022-09-10T12:37:05.492Z,53.54
2022-09-10T12:39:34.725Z,53.88
2022-09-10T12:42:24.371Z,53.74
2022-09-10T12:44:52.606Z,54.54
2022-09-10T12:47:42.625Z,55.33
2022-09-10T12:50:28.522Z,55.09
2022-09-10T12:53:26.288Z,54.14
2022-09-10T12:56:16.583Z,53.90
2022-09-10T12:59:10.664Z,53.80
2022-09-10T13:01:42.052Z,55.07
2022-09-10T13:04:31.125Z,57.03
2022-09-10T13:07:03.448Z,58.29
2022-09-10T13:09:39.303Z,58.91
2022-09-10T13:12:17.207Z,59.88
2022-09-10T13:14:53.959Z,59.98
2022-09-10T13:17:37.820Z,60.23
2022-09-10T13:20:35.609Z,60.00
2022-09-10T13:23:09.520Z,58.97
2022-09-10T13:25:42.906Z,58.27
2022-09-10T13:28:29.092Z,57.80
2022-09-10T13:30:59.865Z,56.95
2022-09-10T13:33:31.419Z,56.72
2022-09-10T13:36:28.631Z,56.72
2022-09-10T13:39:17.728Z,56.18
2022-09-10T13:42:05.432Z,56.00
2022-09-10T13:45:30.229Z,55.73
2022-09-10T13:48:10.184Z,55.74
2022-09-10T13:50:46.962Z,55.83
2022-09-10T13:53:17.791Z,55.91
2022-09-10T13:55:57.332Z,56.41
2022-09-10T13:58:28.844Z,57.15
2022-09-10T14:01:03.416Z,57.67
2022-09-10T14:03:34.602Z,58.41
2022-09-10T14:06:32.528Z,58.85
2022-09-10T14:09:07.098Z,59.11
2022-09-10T14:11:42.291Z,58.96
2022-09-10T14:14:16.831Z,58.35
2022-09-10T14:16:49.244Z,57.35
2022-09-10T14:19:25.007Z,56.71
2022-09-10T14:21:55.957Z,57.51
2022-09-10T14:24:30.772Z,57.73
2022-09-10T14:27:15.709Z,58.54
2022-09-10T14:29:43.969Z,59.08
2022-09-10T14:32:26.563Z,59.67
2022-09-10T14:34:55.145Z,58.75
2022-09-10T14:37:40.317Z,58.87
2022-09-10T14:40:22.017Z,59.65
2022-09-10T14:42:51.010Z,61.02
2022-09-10T14:45:44.290Z,61.63
2022-09-10T14:48:38.761Z,62.85
2022-09-10T14:51:12.769Z,63.48
2022-09-10T14:53:42.374Z,64.30
2022-09-10T14:56:24.993Z,64.62
2022-09-10T14:59:00.222Z,64.75
2022-09-10T15:01:29.421Z,64.91
2022-09-10T15:03:59.447Z,65.39
2022-09-10T15:06:27.945Z,65.26
2022-09-10T15:08:56.392Z,64.29
2022-09-10T15:11:27.652Z,63.25
2022-09-10T15:13:56.477Z,62.55
2022-09-10T15:16:24.515Z,61.98
2022-09-10T15:18:52.741Z,62.01
2022-09-10T15:21:20.805Z,62.12
2022-09-10T15:23:48.930Z,62.20
2022-09-10T15:26:17.109Z,61.68
2022-09-10T15:28:45.694Z,62.05
2022-09-10T15:31:14.120Z,61.47
2022-09-10T15:33:43.781Z,61.36
2022-09-10T15:36:11.680Z,60.75
2022-09-10T15:38:39.720Z,60.20
2022-09-10T15:41:13.165Z,59.96
2022-09-10T15:43:43.697Z,59.63
2022-09-10T15:46:13.850Z,59.40
2022-09-10T15:48:43.375Z,59.09
2022-09-10T15:51:21.491Z,58.44
2022-09-10T15:53:52.575Z,58.91
2022-09-10T15:56:22.510Z,59.08
2022-09-10T15:58:52.275Z,59.59
2022-09-10T16:01:20.354Z,59.73
2022-09-10T16:03:51.691Z,60.11
2022-09-10T16:06:20.052Z,62.36
2022-09-10T16:09:02.148Z,63.80
2022-09-10T16:11:32.885Z,64.89
2022-09-10T16:14:07.198Z,65.37
2022-09-10T16:16:37.269Z,66.26
2022-09-10T16:19:06.110Z,66.94
2022-09-10T16:21:37.193Z,67.17
2022-09-10T16:24:06.854Z,67.61
2022-09-10T16:26:38.613Z,68.33
2022-09-10T16:29:12.830Z,68.48
2022-09-10T16:31:41.982Z,69.44
2022-09-10T16:34:12.151Z,70.21
2022-09-10T16:36:40.498Z,70.02
2022-09-10T16:39:13.515Z,69.95
2022-09-10T16:41:44.100Z,70.68
2022-09-10T16:44:14.900Z,70.77
2022-09-10T16:46:44.009Z,70.87
2022-09-10T16:49:14.047Z,70.83
2022-09-10T16:51:44.482Z,70.32
2022-09-10T16:54:19.559Z,70.52
2022-09-10T16:56:49.276Z,70.16
2022-09-10T16:59:22.665Z,69.60
2022-09-10T17:01:52.709Z,70.13
2022-09-10T17:04:28.287Z,70.50
2022-09-10T17:06:58.156Z,71.12
2022-09-10T17:09:26.352Z,71.84
2022-09-10T17:11:54.513Z,71.71
2022-09-10T17:14:22.951Z,71.36
2022-09-10T17:16:51.462Z,71.37
2022-09-10T17:19:23.912Z,71.55
2022-09-10T17:21:55.830Z,72.03
2022-09-10T17:24:26.739Z,72.69
2022-09-10T17:26:55.725Z,73.11
2022-09-10T17:29:26.157Z,73.55
2022-09-10T17:31:58.116Z,73.62
2022-09-10T17:34:27.415Z,73.88
2022-09-10T17:36:56.350Z,74.19
2022-09-10T17:39:28.507Z,74.60
2022-09-10T17:41:57.168Z,75.23
2022-09-10T17:44:27.104Z,75.35
2022-09-10T17:46:55.562Z,75.51
2022-09-10T17:49:24.811Z,75.68
2022-09-10T17:51:53.549Z,76.23
2022-09-10T17:54:23.462Z,76.37
2022-09-10T17:56:51.735Z,76.27
2022-09-10T17:59:20.048Z,75.78
2022-09-10T18:01:48.131Z,75.88
2022-09-10T18:04:16.264Z,76.10
2022-09-10T18:06:47.880Z,76.29
2022-09-10T18:09:17.725Z,76.33
2022-09-10T18:11:46.106Z,76.44
2022-09-10T18:14:17.765Z,76.85
2022-09-10T18:16:46.795Z,77.01
2022-09-10T18:19:17.029Z,76.81
2022-09-10T18:21:47.076Z,76.64
2022-09-10T18:24:23.852Z,76.60
2022-09-10T18:26:57.351Z,76.54
2022-09-10T18:29:30.055Z,76.63
2022-09-10T18:32:01.675Z,76.67
2022-09-10T18:34:31.226Z,76.67
2022-09-10T18:37:01.352Z,76.40
2022-09-10T18:39:31.357Z,76.21
2022-09-10T18:42:03.613Z,75.92
2022-09-10T18:44:34.362Z,76.53
2022-09-10T18:47:03.774Z,77.43
2022-09-10T18:49:32.073Z,77.84
2022-09-10T18:52:00.206Z,77.41
2022-09-10T18:54:28.813Z,77.31
2022-09-10T18:56:57.787Z,77.44
2022-09-10T18:59:26.338Z,77.38
2022-09-10T19:01:56.094Z,77.65
2022-09-10T19:04:29.534Z,77.56
2022-09-10T19:06:58.059Z,77.92
2022-09-10T19:09:28.752Z,77.83
2022-09-10T19:11:59.041Z,78.41
2022-09-10T19:14:31.968Z,78.42
2022-09-10T19:17:01.309Z,78.76
2022-09-10T19:19:35.284Z,78.86
2022-09-10T19:22:10.645Z,79.25
2022-09-10T19:24:55.326Z,78.84
2022-09-10T19:27:24.835Z,79.13
2022-09-10T19:29:53.920Z,79.51
2022-09-10T19:32:22.198Z,79.51
2022-09-10T19:34:51.606Z,79.24
2022-09-10T19:37:21.124Z,78.74
2022-09-10T19:39:49.478Z,78.97
2022-09-10T19:42:17.967Z,78.93
2022-09-10T19:44:46.488Z,78.59
2022-09-10T19:47:14.618Z,78.71
2022-09-10T19:49:43.001Z,78.75
2022-09-10T19:52:11.297Z,79.01
2022-09-10T19:54:39.961Z,78.85
2022-09-10T19:57:08.030Z,78.76
2022-09-10T19:59:36.206Z,78.63
2022-09-10T20:02:04.385Z,78.47
2022-09-10T20:04:33.369Z,78.35
2022-09-10T20:07:01.752Z,78.32
2022-09-10T20:09:30.028Z,78.46
2022-09-10T20:11:58.198Z,78.43
2022-09-10T20:14:26.272Z,78.54
2022-09-10T20:16:54.855Z,78.86
2022-09-10T20:19:23.237Z,79.44
2022-09-10T20:21:51.822Z,79.78
2022-09-10T20:24:19.822Z,79.84
2022-09-10T20:26:49.173Z,79.88
2022-09-10T20:29:19.308Z,80.11
2022-09-10T20:31:48.780Z,80.05
2022-09-10T20:34:20.468Z,79.89
2022-09-10T20:36:53.923Z,79.45
2022-09-10T20:39:25.510Z,79.35
2022-09-10T20:41:53.905Z,79.42
2022-09-10T20:44:23.127Z,79.09
2022-09-10T20:46:51.215Z,79.06
2022-09-10T20:49:19.347Z,79.07
2022-09-10T20:51:48.441Z,79.20
2022-09-10T20:54:18.365Z,79.32
2022-09-10T20:56:46.941Z,79.32
2022-09-10T20:59:17.283Z,79.36
2022-09-10T21:01:46.052Z,79.40
2022-09-10T21:04:14.740Z,79.29
2022-09-10T21:06:42.918Z,79.14
2022-09-10T21:09:12.165Z,79.44
2022-09-10T21:11:40.337Z,79.59
2022-09-10T21:14:09.266Z,79.76
2022-09-10T21:16:40.157Z,79.78
2022-09-10T21:19:14.533Z,79.86
2022-09-10T21:21:45.092Z,79.45
2022-09-10T21:24:15.488Z,79.39
2022-09-10T21:26:44.290Z,79.48
2022-09-10T21:29:15.705Z,79.76
2022-09-10T21:31:45.504Z,79.76
2022-09-10T21:34:14.949Z,79.33
2022-09-10T21:36:43.970Z,79.04
2022-09-10T21:39:17.512Z,79.03
2022-09-10T21:41:47.912Z,79.03
2022-09-10T21:44:25.191Z,79.09
2022-09-10T21:46:53.432Z,79.17
2022-09-10T21:49:21.609Z,79.50
2022-09-10T21:51:50.396Z,79.88
2022-09-10T21:54:21.170Z,79.96
2022-09-10T21:56:50.532Z,80.15
2022-09-10T21:59:20.570Z,79.88
2022-09-10T22:01:49.429Z,79.68
2022-09-10T22:04:22.424Z,79.96
2022-09-10T22:06:54.032Z,80.83
2022-09-10T22:09:22.456Z,81.14
2022-09-10T22:11:54.390Z,81.06
2022-09-10T22:14:24.545Z,81.35
2022-09-10T22:16:53.023Z,81.33
2022-09-10T22:19:25.963Z,81.51
2022-09-10T22:21:55.141Z,81.57
2022-09-10T22:24:23.278Z,81.65
2022-09-10T22:26:51.537Z,81.68
2022-09-10T22:29:20.492Z,81.89
2022-09-10T22:31:49.755Z,81.52
2022-09-10T22:34:18.743Z,81.21
2022-09-10T22:36:48.683Z,81.23
2022-09-10T22:39:21.542Z,81.44
2022-09-10T22:41:50.670Z,81.38
2022-09-10T22:44:20.125Z,81.21
2022-09-10T22:46:48.591Z,81.07
2022-09-10T22:49:18.147Z,80.89
2022-09-10T22:51:46.507Z,80.68
2022-09-10T22:54:15.194Z,80.85
2022-09-10T22:56:44.605Z,80.73
2022-09-10T22:59:14.351Z,81.04
2022-09-10T23:01:46.138Z,81.35
2022-09-10T23:04:14.976Z,81.35
2022-09-10T23:06:42.923Z,81.18
2022-09-10T23:09:14.792Z,81.32
2022-09-10T23:11:44.578Z,81.04
2022-09-10T23:14:16.051Z,80.68
2022-09-10T23:16:48.372Z,80.48
2022-09-10T23:19:20.379Z,80.39
2022-09-10T23:21:51.295Z,80.43
2022-09-10T23:24:22.133Z,80.30
2022-09-10T23:26:51.120Z,80.00
2022-09-10T23:29:20.683Z,80.10
2022-09-10T23:31:49.145Z,80.18
2022-09-10T23:34:18.959Z,80.31
2022-09-10T23:36:48.976Z,80.29
2022-09-10T23:39:20.227Z,80.34
2022-09-10T23:41:49.887Z,80.47
2022-09-10T23:44:18.719Z,80.43
2022-09-10T23:46:46.801Z,80.25
2022-09-10T23:49:15.169Z,80.41
2022-09-10T23:51:43.446Z,80.61
2022-09-10T23:54:12.440Z,80.52
2022-09-10T23:56:41.062Z,80.58
2022-09-10T23:59:10.627Z,80.74
